Jackson Heights, New York
Current Conditions -  °F | °C
As of 5:51 AM on Saturday 25 Oct 2014 (Local Time) from KLGA Reporting Station
Scattered Clouds Scattered Clouds  
Wind Chill: 53°   Ceiling: Unl
Heat Index: 53°   Visibility: 10mi
Dew Point: 38°   Wind: 9mph
Humidity: 57%   Direction: 290°WNW
Pressure: 29.86"   Gusts: NA
Location:  40.76°N, 73.89°W
Report Text: KLGA 250951Z 29008KT 10SM SCT250 12/03 A2986 RMK AO2 SLP112 T01170033
Loading
Personal Weather Stations






























Interactive Weather Map
Tropical Storm Tracking
New forecast layout! Learn more

10-Day Weather Forecast

Advertisements
Track Severe Weather on mobile